Йошкар-Ола-4

Карта отелей и гостиниц, располагающихся рядом с аэропортом Йошкар-Ола-4 :

Йошкар-Ола-4 Марий Эл 56° 33' 54.72" N, 48° 13' 17.8212" E
Код аэродрома ИКАО
HF8H
Код аэродрома RU
ХФ8Х
Координаты
N56.56520° E048.22162°
Превышение над уровнем моря
148
Основная полоса
35/17
Курс магнитный
346,7/166,7
Длина основной ВПП
19
Ширина основной ВПП
14
Покрытие основной ВПП
Твёрдое
Освещение ВПП
Нет
Тип: 
Вертодром
Класс аэродрома: 
Принадлежность: 
МО
Статус: 
Действующий
Сайт: 
E-mail аэродрома: 
Страна: 
Россия
Регион: 
Марий Эл
Город: 
Дополнительная информация: 
Оператор: 14-я РД РВСН.

Найти трансфер

С помощью этой формы Вы можете найти трансфер из аэропорта Йошкар-Ола-4 в город, аэропорт или вокзал:

Карта места

Javascript is required to view this map.

Погода в аэропортах:

Авиационная погода в Волгограде

Регион: 
Погода METAR: 
URWW 271200Z 27007MPS 3200 BR OVC009 04/04 Q1007 R24/290050 NOSIG RMK OBST OBSC
Время наблюдения
2021-02-27T12:00:00Z
Температура C
4.0
Точка росы
4.0
Направление ветра
270
Скорость ветра (узлы)
14
Метео видимость
1.99
Явления погоды
BR
Условия полета
IFR
Аэропорт подробнее: 

Авиационная погода в Черновцах

Регион: 
Погода METAR: 
UKLN 270835Z 30006G11MPS 250V340 9999 -SHRA BKN013 BKN///CB 03/03 Q1023 R33/290360 NOSIG
Время наблюдения
2021-02-27T08:35:00Z
Температура C
3.0
Точка росы
3.0
Направление ветра
300
Скорость ветра (узлы)
12
Метео видимость
6.21
Явления погоды
-SHRA
Условия полета
MVFR
Аэропорт подробнее: 

Авиационная погода в Ботсфьорде

Регион: 
Погода METAR: 
ENBS 262050Z 34022KT 9999 DRSN BKN018 M01/M04 Q1006
Время наблюдения
2021-02-26T20:50:00Z
Температура C
-1.0
Точка росы
-4.0
Направление ветра
340
Скорость ветра (узлы)
22
Метео видимость
6.21
Явления погоды
DRSN
Условия полета
MVFR

Авиационная погода в Орске

Регион: 
Погода METAR: 
UWOR 271200Z 18008MPS 9999 DRSN OVC021 M07/M10 Q1005 R25/820242 NOSIG RMK QFE731/0974
Время наблюдения
2021-02-27T12:00:00Z
Температура C
-7.0
Точка росы
-10.0
Направление ветра
180
Скорость ветра (узлы)
16
Метео видимость
6.21
Явления погоды
DRSN
Условия полета
MVFR
Аэропорт подробнее: